createdAt,value
2023-02-07T00:01:33.185Z,-10.25
2023-02-07T00:04:00.793Z,-10.53
2023-02-07T00:06:32.208Z,-10.66
2023-02-07T00:09:03.004Z,-10.76
2023-02-07T00:11:30.726Z,-10.69
2023-02-07T00:13:59.538Z,-10.70
2023-02-07T00:16:28.178Z,-10.74
2023-02-07T00:18:58.976Z,-10.74
2023-02-07T00:21:30.057Z,-10.93
2023-02-07T00:23:58.221Z,-10.98
2023-02-07T00:26:27.514Z,-11.01
2023-02-07T00:28:56.551Z,-11.20
2023-02-07T00:31:29.690Z,-11.22
2023-02-07T00:34:00.766Z,-11.41
2023-02-07T00:36:31.385Z,-11.53
2023-02-07T00:39:04.743Z,-11.53
2023-02-07T00:41:32.948Z,-11.64
2023-02-07T00:44:00.661Z,-11.71
2023-02-07T00:46:31.255Z,-11.80
2023-02-07T00:48:58.599Z,-11.92
2023-02-07T00:51:26.162Z,-11.95
2023-02-07T00:53:56.530Z,-11.97
2023-02-07T00:56:27.790Z,-11.94
2023-02-07T00:58:55.319Z,-11.95
2023-02-07T01:01:24.650Z,-11.96
2023-02-07T01:03:52.277Z,-11.94
2023-02-07T01:06:20.962Z,-11.89
2023-02-07T01:08:48.572Z,-12.00
2023-02-07T01:11:19.052Z,-11.92
2023-02-07T01:13:46.591Z,-11.90
2023-02-07T01:16:28.964Z,-11.98
2023-02-07T01:18:57.028Z,-11.88
2023-02-07T01:21:27.858Z,-11.86
2023-02-07T01:23:56.784Z,-11.85
2023-02-07T01:26:27.988Z,-11.79
2023-02-07T01:28:56.787Z,-11.74
2023-02-07T01:31:24.489Z,-11.56
2023-02-07T01:33:59.334Z,-11.54
2023-02-07T01:36:29.096Z,-11.68
2023-02-07T01:38:57.362Z,-11.70
2023-02-07T01:41:27.240Z,-11.71
2023-02-07T01:44:29.214Z,-11.75
2023-02-07T01:46:57.482Z,-11.80
2023-02-07T01:49:32.527Z,-11.81
2023-02-07T01:52:16.506Z,-11.84
2023-02-07T01:54:48.595Z,-11.94
2023-02-07T01:57:21.257Z,-11.96
2023-02-07T01:59:52.152Z,-11.98
2023-02-07T02:02:23.124Z,-12.08
2023-02-07T02:04:54.914Z,-12.13
2023-02-07T02:07:23.335Z,-12.24
2023-02-07T02:09:56.315Z,-12.28
2023-02-07T02:13:05.017Z,-12.14
2023-02-07T02:15:45.001Z,-12.25
2023-02-07T02:18:15.109Z,-12.19
2023-02-07T02:21:15.516Z,-12.17
2023-02-07T02:24:15.133Z,-11.91
2023-02-07T02:27:09.166Z,-11.76
2023-02-07T02:33:55.155Z,-11.84
2023-02-07T02:36:36.870Z,-11.81
2023-02-07T02:39:23.958Z,-12.03
2023-02-07T02:42:37.520Z,-12.05
2023-02-07T02:48:20.689Z,-11.84
2023-02-07T02:50:53.706Z,-11.77
2023-02-07T02:53:23.824Z,-11.94
2023-02-07T02:56:09.194Z,-12.00
2023-02-07T02:59:12.304Z,-12.07
2023-02-07T03:02:16.112Z,-12.18
2023-02-07T03:05:20.854Z,-12.33
2023-02-07T03:08:36.178Z,-12.38
2023-02-07T03:11:20.093Z,-12.42
2023-02-07T03:13:59.271Z,-12.44
2023-02-07T03:16:39.417Z,-12.41
2023-02-07T03:19:39.423Z,-12.43
2023-02-07T03:22:14.982Z,-12.48
2023-02-07T03:24:49.770Z,-12.49
2023-02-07T03:27:21.119Z,-12.55
2023-02-07T03:29:57.825Z,-12.58
2023-02-07T03:32:38.740Z,-12.55
2023-02-07T03:35:35.598Z,-12.44
2023-02-07T03:38:04.872Z,-12.44
2023-02-07T03:40:47.301Z,-12.56
2023-02-07T03:43:23.003Z,-12.34
2023-02-07T03:45:50.409Z,-12.21
2023-02-07T03:48:17.695Z,-12.32
2023-02-07T03:50:45.230Z,-12.41
2023-02-07T03:53:12.458Z,-12.48
2023-02-07T03:55:40.240Z,-12.44
2023-02-07T03:58:08.670Z,-12.55
2023-02-07T04:00:36.851Z,-12.50
2023-02-07T04:03:05.363Z,-12.53
2023-02-07T04:05:32.675Z,-12.51
2023-02-07T04:08:00.215Z,-12.57
2023-02-07T04:10:27.587Z,-12.58
2023-02-07T04:12:54.823Z,-12.62
2023-02-07T04:15:22.338Z,-12.57
2023-02-07T04:17:49.592Z,-12.50
2023-02-07T04:20:17.154Z,-12.35
2023-02-07T04:22:44.489Z,-12.38
2023-02-07T04:25:11.729Z,-12.30
2023-02-07T04:27:38.962Z,-12.18
2023-02-07T04:30:06.936Z,-12.17
2023-02-07T04:32:34.173Z,-12.26
2023-02-07T04:35:01.482Z,-12.27
2023-02-07T04:37:28.703Z,-12.43
2023-02-07T04:39:58.987Z,-12.71
2023-02-07T04:42:26.439Z,-12.78
2023-02-07T04:44:53.698Z,-12.94
2023-02-07T04:47:20.948Z,-13.01
2023-02-07T04:49:48.307Z,-13.02
2023-02-07T04:52:15.506Z,-13.01
2023-02-07T04:54:42.822Z,-12.99
2023-02-07T04:57:10.122Z,-13.01
2023-02-07T04:59:37.354Z,-13.01
2023-02-07T05:02:04.689Z,-12.98
2023-02-07T05:04:31.994Z,-12.95
2023-02-07T05:06:59.315Z,-12.88
2023-02-07T05:09:27.527Z,-12.81
2023-02-07T05:11:57.273Z,-12.76
2023-02-07T05:14:24.790Z,-12.84
2023-02-07T05:16:52.025Z,-12.85
2023-02-07T05:19:19.391Z,-12.90
2023-02-07T05:21:46.597Z,-12.92
2023-02-07T05:24:16.082Z,-12.89
2023-02-07T05:26:45.621Z,-12.88
2023-02-07T05:29:13.088Z,-12.89
2023-02-07T05:31:58.987Z,-12.85
2023-02-07T05:34:26.383Z,-12.84
2023-02-07T05:36:53.510Z,-12.81
2023-02-07T05:39:20.644Z,-12.78
2023-02-07T05:41:47.826Z,-12.68
2023-02-07T05:44:15.029Z,-12.53
2023-02-07T05:46:42.341Z,-12.31
2023-02-07T05:49:09.748Z,-12.10
2023-02-07T05:51:37.049Z,-11.84
2023-02-07T05:54:04.567Z,-11.59
2023-02-07T05:56:36.465Z,-11.36
2023-02-07T05:59:03.861Z,-11.18
2023-02-07T06:01:31.070Z,-11.12
2023-02-07T06:03:58.344Z,-10.91
2023-02-07T06:06:25.643Z,-10.79
2023-02-07T06:08:52.872Z,-10.68
2023-02-07T06:11:19.999Z,-10.55
2023-02-07T06:13:47.351Z,-10.31
2023-02-07T06:16:14.687Z,-10.32
2023-02-07T06:18:41.825Z,-10.28
2023-02-07T06:21:09.480Z,-10.09
2023-02-07T06:23:36.712Z,-10.07
2023-02-07T06:26:04.275Z,-9.83
2023-02-07T06:28:31.712Z,-9.69
2023-02-07T06:30:58.969Z,-9.66
2023-02-07T06:33:26.220Z,-9.49
2023-02-07T06:35:55.732Z,-9.52
2023-02-07T06:38:23.441Z,-9.43
2023-02-07T06:40:50.757Z,-9.25
2023-02-07T06:43:18.003Z,-9.05
2023-02-07T06:45:48.225Z,-8.95
2023-02-07T06:48:15.557Z,-8.83
2023-02-07T06:50:42.861Z,-8.99
2023-02-07T06:53:10.066Z,-8.87
2023-02-07T06:55:40.013Z,-8.88
2023-02-07T06:58:08.544Z,-8.78
2023-02-07T07:00:36.136Z,-8.73
2023-02-07T07:03:03.709Z,-8.78
2023-02-07T07:05:32.453Z,-8.60
2023-02-07T07:07:59.673Z,-8.58
2023-02-07T07:10:29.664Z,-8.64
2023-02-07T07:12:56.955Z,-8.36
2023-02-07T07:15:24.245Z,-8.35
2023-02-07T07:17:51.515Z,-8.22
2023-02-07T07:20:19.018Z,-8.15
2023-02-07T07:22:46.266Z,-7.98
2023-02-07T07:25:13.508Z,-8.11
2023-02-07T07:27:40.749Z,-8.11
2023-02-07T07:30:10.655Z,-7.97
2023-02-07T07:32:41.237Z,-7.88
2023-02-07T07:35:08.803Z,-7.62
2023-02-07T07:37:37.431Z,-7.38
2023-02-07T07:40:05.551Z,-7.45
2023-02-07T07:42:32.752Z,-7.28
2023-02-07T07:45:22.589Z,-7.09
2023-02-07T07:47:49.950Z,-7.33
2023-02-07T07:50:17.221Z,-7.01
2023-02-07T07:52:44.518Z,-6.88
2023-02-07T07:55:11.778Z,-6.70
2023-02-07T07:57:40.388Z,-6.60
2023-02-07T08:00:08.187Z,-6.48
2023-02-07T08:02:42.927Z,-6.53
2023-02-07T08:05:13.504Z,-6.38
2023-02-07T08:07:41.101Z,-6.41
2023-02-07T08:10:08.717Z,-6.49
2023-02-07T08:12:36.095Z,-6.34
2023-02-07T08:15:03.824Z,-6.33
2023-02-07T08:17:30.991Z,-6.13
2023-02-07T08:19:58.220Z,-6.05
2023-02-07T08:22:25.488Z,-6.12
2023-02-07T08:24:52.804Z,-6.21
2023-02-07T08:27:19.940Z,-5.96
2023-02-07T08:29:47.150Z,-5.81
2023-02-07T08:32:14.391Z,-5.79
2023-02-07T08:34:45.502Z,-5.55
2023-02-07T08:37:15.111Z,-5.45
2023-02-07T08:39:45.690Z,-5.61
2023-02-07T08:42:12.957Z,-5.37
2023-02-07T08:44:40.307Z,-4.82
2023-02-07T08:47:07.588Z,-4.72
2023-02-07T08:49:34.953Z,-4.46
2023-02-07T08:52:02.282Z,-4.41
2023-02-07T08:54:29.492Z,-4.59
2023-02-07T08:56:56.858Z,-4.73
2023-02-07T08:59:24.284Z,-4.63
2023-02-07T09:01:51.700Z,-4.60
2023-02-07T09:04:19.120Z,-4.45
2023-02-07T09:06:46.676Z,-4.18
2023-02-07T09:09:13.962Z,-4.18
2023-02-07T09:11:41.455Z,-3.75
2023-02-07T09:14:08.730Z,-3.71
2023-02-07T09:16:36.217Z,-3.49
2023-02-07T09:19:03.808Z,-3.21
2023-02-07T09:21:31.653Z,-3.24
2023-02-07T09:23:58.985Z,-3.47
2023-02-07T09:26:31.518Z,-3.35
2023-02-07T09:28:58.905Z,-3.40
2023-02-07T09:31:26.341Z,-3.36
2023-02-07T09:33:54.048Z,-3.41
2023-02-07T09:36:29.271Z,-3.32
2023-02-07T09:38:56.926Z,-3.19
2023-02-07T09:41:42.135Z,-3.34
2023-02-07T09:44:16.768Z,-3.26
2023-02-07T09:47:06.111Z,-3.25
2023-02-07T09:49:39.984Z,-3.37
2023-02-07T09:52:17.690Z,-3.60
2023-02-07T09:54:50.824Z,-3.38
2023-02-07T09:58:20.495Z,-3.32
2023-02-07T10:01:09.091Z,-3.39
2023-02-07T10:04:05.402Z,-3.19
2023-02-07T10:06:35.126Z,-2.79
2023-02-07T10:09:02.450Z,-2.82
2023-02-07T10:11:44.256Z,-2.80
2023-02-07T10:14:45.014Z,-3.02
2023-02-07T10:17:41.988Z,-2.88
2023-02-07T10:20:55.536Z,-2.81
2023-02-07T10:23:28.822Z,-2.61
2023-02-07T10:26:39.284Z,-2.17
2023-02-07T10:29:38.301Z,-2.04
2023-02-07T10:32:21.979Z,-1.91
2023-02-07T10:34:53.936Z,-1.68
2023-02-07T10:37:25.882Z,-1.30
2023-02-07T10:40:42.813Z,-1.17
2023-02-07T10:43:42.278Z,-1.17
2023-02-07T10:46:13.367Z,-1.02
2023-02-07T10:48:40.710Z,-0.87
2023-02-07T10:51:19.576Z,-0.81
2023-02-07T10:54:10.151Z,-0.67
2023-02-07T10:56:44.974Z,-1.00
2023-02-07T10:59:36.832Z,-0.99
2023-02-07T11:02:31.816Z,-0.86
2023-02-07T11:05:16.506Z,-0.83
2023-02-07T11:08:20.346Z,-1.34
2023-02-07T11:10:48.754Z,-1.63
2023-02-07T11:13:23.521Z,-1.83
2023-02-07T11:16:01.356Z,-1.98
2023-02-07T11:19:00.971Z,-1.55
2023-02-07T11:21:34.407Z,-1.41
2023-02-07T11:24:17.952Z,-1.32
2023-02-07T11:27:10.247Z,-1.35
2023-02-07T11:29:58.418Z,-0.92
2023-02-07T11:32:28.288Z,-0.73
2023-02-07T11:35:05.834Z,-0.72
2023-02-07T11:37:36.220Z,-0.81
2023-02-07T11:40:30.176Z,-0.69
2023-02-07T11:43:20.174Z,-1.07
2023-02-07T11:45:52.939Z,-1.17
2023-02-07T11:48:34.065Z,-0.96
2023-02-07T11:51:07.840Z,-0.98
2023-02-07T11:53:56.800Z,-1.11
2023-02-07T11:56:37.320Z,-0.96
2023-02-07T11:59:11.144Z,-0.93
2023-02-07T12:01:39.767Z,-0.81
2023-02-07T12:04:17.695Z,-0.71
2023-02-07T12:06:46.804Z,-0.75
2023-02-07T12:09:42.982Z,-1.18
2023-02-07T12:12:51.523Z,-1.02
2023-02-07T12:16:06.957Z,-0.87
2023-02-07T12:19:04.176Z,-0.70
2023-02-07T12:22:07.661Z,-0.95
2023-02-07T12:24:55.045Z,-0.84
2023-02-07T12:27:33.165Z,-0.82
2023-02-07T12:30:37.716Z,-0.77
2023-02-07T12:33:24.367Z,-0.55
2023-02-07T12:36:26.852Z,-1.13
2023-02-07T12:39:34.295Z,-1.26
2023-02-07T12:42:24.538Z,-1.14
2023-02-07T12:45:00.557Z,-1.27
2023-02-07T12:48:04.602Z,-1.09
2023-02-07T12:51:06.339Z,-1.09
2023-02-07T12:53:39.047Z,-1.02
2023-02-07T12:56:57.817Z,-1.66
2023-02-07T13:00:05.177Z,-1.69
2023-02-07T13:03:26.655Z,-1.77
2023-02-07T13:06:11.961Z,-1.70
2023-02-07T13:09:04.472Z,-1.56
2023-02-07T13:11:41.477Z,-1.82
2023-02-07T13:14:32.251Z,-1.84
2023-02-07T13:17:21.117Z,-1.69
2023-02-07T13:20:21.600Z,-1.54
2023-02-07T13:23:04.228Z,-1.48
2023-02-07T13:25:40.769Z,-1.72
2023-02-07T13:28:37.184Z,-1.44
2023-02-07T13:31:08.605Z,-1.50
2023-02-07T13:33:41.125Z,-1.55
2023-02-07T13:36:50.572Z,-1.41
2023-02-07T13:39:55.859Z,-1.49
2023-02-07T13:42:25.693Z,-1.41
2023-02-07T13:45:14.753Z,-1.39
2023-02-07T13:48:29.011Z,-1.53
2023-02-07T13:51:17.764Z,-1.53
2023-02-07T13:54:32.906Z,-1.64
2023-02-07T13:57:21.123Z,-1.92
2023-02-07T14:00:12.885Z,-1.96
2023-02-07T14:02:47.620Z,-1.83
2023-02-07T14:05:43.598Z,-1.79
2023-02-07T14:08:22.138Z,-1.92
2023-02-07T14:10:57.415Z,-2.17
2023-02-07T14:13:36.388Z,-2.18
2023-02-07T14:16:11.755Z,-2.15
2023-02-07T14:18:52.766Z,-2.06
2023-02-07T14:21:20.186Z,-2.15
2023-02-07T14:24:31.526Z,-2.23
2023-02-07T14:27:01.615Z,-2.34
2023-02-07T14:29:28.664Z,-2.19
2023-02-07T14:32:52.515Z,-2.12
2023-02-07T14:35:19.640Z,-2.13
2023-02-07T14:38:07.351Z,-2.33
2023-02-07T14:40:43.547Z,-2.74
2023-02-07T14:43:13.601Z,-2.68
2023-02-07T14:45:50.590Z,-2.60
2023-02-07T14:48:41.118Z,-2.85
2023-02-07T14:51:29.699Z,-2.75
2023-02-07T14:54:05.773Z,-2.64
2023-02-07T14:57:20.765Z,-2.67
2023-02-07T15:00:13.937Z,-2.65
2023-02-07T15:02:47.953Z,-2.70
2023-02-07T15:05:29.467Z,-2.63
2023-02-07T15:08:16.662Z,-2.83
2023-02-07T15:11:26.894Z,-3.19
2023-02-07T15:14:00.566Z,-3.05
2023-02-07T15:16:38.339Z,-2.85
2023-02-07T15:19:39.530Z,-2.76
2023-02-07T15:22:20.480Z,-2.98
2023-02-07T15:24:52.251Z,-3.12
2023-02-07T15:27:27.160Z,-3.18
2023-02-07T15:30:07.199Z,-3.31
2023-02-07T15:32:43.615Z,-3.21
2023-02-07T15:35:23.068Z,-3.02
2023-02-07T15:37:51.262Z,-3.09
2023-02-07T15:40:26.624Z,-3.08
2023-02-07T15:43:01.083Z,-3.27
2023-02-07T15:45:33.820Z,-3.32
2023-02-07T15:48:07.895Z,-3.15
2023-02-07T15:50:40.213Z,-3.05
2023-02-07T15:53:08.780Z,-2.98
2023-02-07T15:55:48.511Z,-3.00
2023-02-07T15:58:33.276Z,-2.97
2023-02-07T16:01:26.269Z,-2.98
2023-02-07T16:03:57.146Z,-3.00
2023-02-07T16:06:30.375Z,-3.05
2023-02-07T16:09:01.863Z,-3.06
2023-02-07T16:11:30.485Z,-3.06
2023-02-07T16:14:12.623Z,-3.12
2023-02-07T16:16:56.935Z,-2.99
2023-02-07T16:19:29.858Z,-3.15
2023-02-07T16:22:14.748Z,-3.13
2023-02-07T16:24:46.693Z,-3.02
2023-02-07T16:27:34.580Z,-2.98
2023-02-07T16:30:03.933Z,-3.01
2023-02-07T16:32:34.904Z,-2.95
2023-02-07T16:35:02.310Z,-2.98
2023-02-07T16:37:29.710Z,-3.22
2023-02-07T16:39:56.938Z,-3.12
2023-02-07T16:42:24.508Z,-3.22
2023-02-07T16:44:51.827Z,-3.11
2023-02-07T16:47:19.351Z,-3.13
2023-02-07T16:49:47.272Z,-3.15
2023-02-07T16:52:14.483Z,-3.21
2023-02-07T16:54:41.912Z,-3.53
2023-02-07T16:57:11.989Z,-3.63
2023-02-07T16:59:39.252Z,-3.90
2023-02-07T17:02:16.549Z,-4.27
2023-02-07T17:04:44.181Z,-4.11
2023-02-07T17:07:12.431Z,-3.91
2023-02-07T17:09:40.070Z,-3.84
2023-02-07T17:12:09.028Z,-4.15
2023-02-07T17:14:38.319Z,-4.14
2023-02-07T17:17:05.973Z,-4.18
2023-02-07T17:19:33.384Z,-4.06
2023-02-07T17:22:05.422Z,-4.01
2023-02-07T17:24:32.701Z,-4.02
2023-02-07T17:27:00.355Z,-3.89
2023-02-07T17:29:27.661Z,-3.82
2023-02-07T17:31:57.347Z,-3.66
2023-02-07T17:34:24.686Z,-3.61
2023-02-07T17:36:52.206Z,-3.47
2023-02-07T17:39:20.017Z,-3.57
2023-02-07T17:41:48.500Z,-3.41
2023-02-07T17:44:21.202Z,-3.45
2023-02-07T17:46:48.912Z,-3.40
2023-02-07T17:49:17.485Z,-3.38
2023-02-07T17:51:44.935Z,-3.34
2023-02-07T17:54:12.198Z,-3.30
2023-02-07T17:56:39.518Z,-3.30
2023-02-07T17:59:14.337Z,-3.25
2023-02-07T18:01:41.585Z,-3.26
2023-02-07T18:04:08.740Z,-3.12
2023-02-07T18:06:36.189Z,-3.18
2023-02-07T18:09:03.480Z,-3.57
2023-02-07T18:11:31.345Z,-3.42
2023-02-07T18:13:59.184Z,-3.27
2023-02-07T18:16:27.252Z,-3.26
2023-02-07T18:18:57.020Z,-3.42
2023-02-07T18:21:25.353Z,-3.65
2023-02-07T18:23:53.506Z,-3.47
2023-02-07T18:26:21.453Z,-3.57
2023-02-07T18:28:49.247Z,-3.53
2023-02-07T18:31:24.342Z,-3.36
2023-02-07T18:33:53.232Z,-3.35
2023-02-07T18:36:24.241Z,-3.47
2023-02-07T18:38:51.496Z,-3.30
2023-02-07T18:41:23.521Z,-3.28
2023-02-07T18:43:51.256Z,-3.25
2023-02-07T18:46:21.093Z,-3.10
2023-02-07T18:48:49.809Z,-3.07
2023-02-07T18:51:18.791Z,-3.12
2023-02-07T18:53:46.979Z,-3.14
2023-02-07T18:56:18.878Z,-3.06
2023-02-07T18:58:47.178Z,-3.04
2023-02-07T19:01:21.509Z,-3.01
2023-02-07T19:03:58.325Z,-2.88
2023-02-07T19:06:32.829Z,-2.82
2023-02-07T19:09:00.950Z,-2.93
2023-02-07T19:11:28.337Z,-3.15
2023-02-07T19:13:55.703Z,-3.27
2023-02-07T19:16:24.903Z,-3.13
2023-02-07T19:18:52.689Z,-3.10
2023-02-07T19:21:27.005Z,-3.07
2023-02-07T19:23:57.426Z,-3.11
2023-02-07T19:26:28.660Z,-3.13
2023-02-07T19:28:58.457Z,-3.15
2023-02-07T19:31:29.153Z,-3.09
2023-02-07T19:34:04.729Z,-3.10
2023-02-07T19:36:32.226Z,-3.04
2023-02-07T19:38:59.543Z,-3.09
2023-02-07T19:41:29.438Z,-3.13
2023-02-07T19:43:59.349Z,-3.15
2023-02-07T19:46:27.179Z,-3.25
2023-02-07T19:48:57.440Z,-3.18
2023-02-07T19:51:27.911Z,-3.06
2023-02-07T19:53:56.757Z,-2.94
2023-02-07T19:56:27.798Z,-3.00
2023-02-07T19:58:56.735Z,-2.93
2023-02-07T20:01:25.667Z,-2.98
2023-02-07T20:03:53.915Z,-3.15
2023-02-07T20:06:27.005Z,-3.06
2023-02-07T20:08:54.348Z,-3.05
2023-02-07T20:11:22.421Z,-2.98
2023-02-07T20:13:53.592Z,-2.89
2023-02-07T20:16:25.021Z,-2.99
2023-02-07T20:18:53.910Z,-2.93
2023-02-07T20:21:27.709Z,-2.85
2023-02-07T20:23:57.247Z,-2.79
2023-02-07T20:26:36.628Z,-2.90
2023-02-07T20:29:09.653Z,-2.82
2023-02-07T20:31:38.446Z,-2.83
2023-02-07T20:34:14.038Z,-2.86
2023-02-07T20:36:43.517Z,-2.98
2023-02-07T20:39:17.954Z,-3.02
2023-02-07T20:41:47.026Z,-2.95
2023-02-07T20:44:23.434Z,-2.87
2023-02-07T20:46:51.614Z,-2.93
2023-02-07T20:49:25.571Z,-3.04
2023-02-07T20:51:55.111Z,-3.17
2023-02-07T20:54:26.400Z,-3.11
2023-02-07T20:56:55.284Z,-2.99
2023-02-07T20:59:32.743Z,-2.96
2023-02-07T21:02:00.780Z,-2.99
2023-02-07T21:04:29.726Z,-2.94
2023-02-07T21:06:57.211Z,-2.94
2023-02-07T21:09:24.737Z,-2.89
2023-02-07T21:11:54.177Z,-2.85
2023-02-07T21:14:28.268Z,-2.85
2023-02-07T21:16:59.059Z,-2.84
2023-02-07T21:19:26.408Z,-2.91
2023-02-07T21:21:55.251Z,-2.95
2023-02-07T21:24:22.947Z,-2.99
2023-02-07T21:26:53.015Z,-2.95
2023-02-07T21:29:21.258Z,-2.90
2023-02-07T21:31:49.344Z,-2.89
2023-02-07T21:34:20.970Z,-2.93
2023-02-07T21:36:49.356Z,-2.86
2023-02-07T21:39:17.294Z,-2.92
2023-02-07T21:41:46.061Z,-3.03
2023-02-07T21:44:14.515Z,-3.01
2023-02-07T21:46:46.378Z,-2.93
2023-02-07T21:49:17.198Z,-3.07
2023-02-07T21:51:49.139Z,-3.02
2023-02-07T21:54:17.377Z,-2.98
2023-02-07T21:56:45.532Z,-3.06
2023-02-07T21:59:17.372Z,-3.05
2023-02-07T22:01:46.384Z,-3.04
2023-02-07T22:04:14.904Z,-3.03
2023-02-07T22:06:44.358Z,-3.08
2023-02-07T22:09:19.279Z,-3.02
2023-02-07T22:11:46.844Z,-2.99
2023-02-07T22:14:15.366Z,-3.15
2023-02-07T22:16:43.485Z,-3.09
2023-02-07T22:19:17.344Z,-3.04
2023-02-07T22:21:45.704Z,-2.98
2023-02-07T22:24:16.656Z,-2.87
2023-02-07T22:26:45.183Z,-2.88
2023-02-07T22:29:12.603Z,-2.85
2023-02-07T22:31:41.950Z,-2.84
2023-02-07T22:34:12.701Z,-2.79
2023-02-07T22:36:45.352Z,-2.80
2023-02-07T22:39:14.352Z,-2.77
2023-02-07T22:41:41.666Z,-2.83
2023-02-07T22:44:09.202Z,-3.02
2023-02-07T22:46:36.720Z,-3.08
2023-02-07T22:49:03.976Z,-3.21
2023-02-07T22:51:37.475Z,-3.17
2023-02-07T22:54:09.707Z,-3.22
2023-02-07T22:56:38.370Z,-3.23
2023-02-07T22:59:06.152Z,-3.36
2023-02-07T23:01:39.191Z,-3.33
2023-02-07T23:04:11.412Z,-3.23
2023-02-07T23:06:39.073Z,-3.40
2023-02-07T23:09:06.531Z,-3.37
2023-02-07T23:11:34.461Z,-3.24
2023-02-07T23:14:02.228Z,-3.37
2023-02-07T23:16:30.862Z,-3.28
2023-02-07T23:19:06.586Z,-3.29
2023-02-07T23:21:34.106Z,-3.26
2023-02-07T23:24:01.710Z,-3.16
2023-02-07T23:26:29.050Z,-3.13
2023-02-07T23:28:57.213Z,-3.08
2023-02-07T23:31:25.664Z,-3.11
2023-02-07T23:33:53.698Z,-3.20
2023-02-07T23:36:21.852Z,-3.10
2023-02-07T23:38:50.657Z,-3.01
2023-02-07T23:41:20.342Z,-2.97
2023-02-07T23:43:50.068Z,-2.95
2023-02-07T23:46:18.033Z,-3.06
2023-02-07T23:48:45.987Z,-3.19
2023-02-07T23:51:14.684Z,-3.17
2023-02-07T23:53:43.670Z,-3.10
2023-02-07T23:56:18.984Z,-3.19
2023-02-07T23:58:48.047Z,-3.33
